createdAt,value
2022-08-27T00:02:42.629Z,25.87
2022-08-27T00:05:13.624Z,26.12
2022-08-27T00:07:43.178Z,26.38
2022-08-27T00:10:18.249Z,26.42
2022-08-27T00:12:47.143Z,26.15
2022-08-27T00:15:17.940Z,26.33
2022-08-27T00:17:47.657Z,26.26
2022-08-27T00:20:21.514Z,26.26
2022-08-27T00:22:50.295Z,26.41
2022-08-27T00:25:21.096Z,26.26
2022-08-27T00:27:50.156Z,26.45
2022-08-27T00:30:21.517Z,26.45
2022-08-27T00:32:50.984Z,26.47
2022-08-27T00:35:22.896Z,26.18
2022-08-27T00:37:52.831Z,26.25
2022-08-27T00:40:22.891Z,26.33
2022-08-27T00:42:51.815Z,26.43
2022-08-27T00:45:25.414Z,26.14
2022-08-27T00:47:58.402Z,26.04
2022-08-27T00:50:44.243Z,25.62
2022-08-27T00:53:20.108Z,25.88
2022-08-27T00:56:11.767Z,25.89
2022-08-27T00:58:47.903Z,25.89
2022-08-27T01:01:20.800Z,25.95
2022-08-27T01:03:55.901Z,26.19
2022-08-27T01:06:29.117Z,26.06
2022-08-27T01:09:10.645Z,26.00
2022-08-27T01:11:39.588Z,24.81
2022-08-27T01:14:09.344Z,25.82
2022-08-27T01:16:41.581Z,25.80
2022-08-27T01:19:27.007Z,25.74
2022-08-27T01:22:23.440Z,25.96
2022-08-27T01:24:56.532Z,25.88
2022-08-27T01:27:28.892Z,25.55
2022-08-27T01:29:58.421Z,25.95
2022-08-27T01:32:34.130Z,26.05
2022-08-27T01:35:06.136Z,26.37
2022-08-27T01:37:35.368Z,26.24
2022-08-27T01:40:05.879Z,26.13
2022-08-27T01:42:47.715Z,26.44
2022-08-27T01:45:25.116Z,26.35
2022-08-27T01:47:54.215Z,26.54
2022-08-27T01:50:25.834Z,25.19
2022-08-27T01:52:55.355Z,26.37
2022-08-27T01:55:26.634Z,26.28
2022-08-27T01:57:55.882Z,26.77
2022-08-27T02:00:29.346Z,26.42
2022-08-27T02:02:59.218Z,26.46
2022-08-27T02:05:29.799Z,26.18
2022-08-27T02:07:59.416Z,25.99
2022-08-27T02:10:36.247Z,25.28
2022-08-27T02:13:07.266Z,25.40
2022-08-27T02:15:38.950Z,25.41
2022-08-27T02:18:08.846Z,25.84
2022-08-27T02:20:37.801Z,25.75
2022-08-27T02:23:06.782Z,25.41
2022-08-27T02:25:35.850Z,25.57
2022-08-27T02:28:06.747Z,25.41
2022-08-27T02:30:36.320Z,25.34
2022-08-27T02:33:06.357Z,25.34
2022-08-27T02:35:43.333Z,25.25
2022-08-27T02:38:14.388Z,24.68
2022-08-27T02:40:43.714Z,25.00
2022-08-27T02:43:15.758Z,24.00
2022-08-27T02:46:04.293Z,24.58
2022-08-27T02:48:37.745Z,24.71
2022-08-27T02:51:08.267Z,24.92
2022-08-27T02:53:38.408Z,25.03
2022-08-27T02:56:07.996Z,25.31
2022-08-27T02:58:36.661Z,24.96
2022-08-27T03:01:05.780Z,24.94
2022-08-27T03:03:39.599Z,25.11
2022-08-27T03:06:09.556Z,25.13
2022-08-27T03:08:52.733Z,25.83
2022-08-27T03:11:26.052Z,26.11
2022-08-27T03:13:54.481Z,26.28
2022-08-27T03:16:23.705Z,26.20
2022-08-27T03:18:53.319Z,26.48
2022-08-27T03:21:26.008Z,26.28
2022-08-27T03:23:55.089Z,26.36
2022-08-27T03:26:24.730Z,26.78
2022-08-27T03:28:53.293Z,25.22
2022-08-27T03:31:29.701Z,26.75
2022-08-27T03:34:07.061Z,26.72
2022-08-27T03:36:35.557Z,26.34
2022-08-27T03:39:04.555Z,26.24
2022-08-27T03:41:53.892Z,26.20
2022-08-27T03:44:26.747Z,26.43
2022-08-27T03:46:55.503Z,26.52
2022-08-27T03:49:24.654Z,26.78
2022-08-27T03:51:54.662Z,27.29
2022-08-27T03:54:24.903Z,27.36
2022-08-27T03:56:53.576Z,27.39
2022-08-27T03:59:22.529Z,27.87
2022-08-27T04:01:52.334Z,27.71
2022-08-27T04:04:24.287Z,27.69
2022-08-27T04:06:52.644Z,27.85
2022-08-27T04:09:21.667Z,28.05
2022-08-27T04:11:50.784Z,27.72
2022-08-27T04:14:26.447Z,27.48
2022-08-27T04:16:57.563Z,27.91
2022-08-27T04:19:28.800Z,26.73
2022-08-27T04:22:02.693Z,27.34
2022-08-27T04:24:34.454Z,27.57
2022-08-27T04:27:04.577Z,27.36
2022-08-27T04:29:34.466Z,27.17
2022-08-27T04:32:05.998Z,27.14
2022-08-27T04:34:37.614Z,27.02
2022-08-27T04:37:07.415Z,27.35
2022-08-27T04:39:35.781Z,27.59
2022-08-27T04:42:04.932Z,27.28
2022-08-27T04:44:34.257Z,27.54
2022-08-27T04:47:06.097Z,27.62
2022-08-27T04:49:34.611Z,27.05
2022-08-27T04:52:05.031Z,27.01
2022-08-27T04:54:34.566Z,27.75
2022-08-27T04:57:05.085Z,27.58
2022-08-27T04:59:36.957Z,27.41
2022-08-27T05:02:09.642Z,27.20
2022-08-27T05:04:40.586Z,26.57
2022-08-27T05:07:10.962Z,26.09
2022-08-27T05:09:39.570Z,26.71
2022-08-27T05:12:08.990Z,25.99
2022-08-27T05:14:37.601Z,24.74
2022-08-27T05:17:07.084Z,25.28
2022-08-27T05:19:39.874Z,25.10
2022-08-27T05:22:11.706Z,25.50
2022-08-27T05:24:41.852Z,25.11
2022-08-27T05:27:14.052Z,25.35
2022-08-27T05:29:45.645Z,25.66
2022-08-27T05:32:21.604Z,25.36
2022-08-27T05:34:51.073Z,25.26
2022-08-27T05:37:25.150Z,24.74
2022-08-27T05:39:53.875Z,25.85
2022-08-27T05:42:24.595Z,26.07
2022-08-27T05:44:56.945Z,25.24
2022-08-27T05:47:25.732Z,24.90
2022-08-27T05:49:55.308Z,25.58
2022-08-27T05:52:27.504Z,25.74
2022-08-27T05:54:56.502Z,25.62
2022-08-27T05:57:28.889Z,24.37
2022-08-27T06:00:15.880Z,24.74
2022-08-27T06:02:48.625Z,24.89
2022-08-27T06:05:17.678Z,24.31
2022-08-27T06:07:46.811Z,24.73
2022-08-27T06:10:15.728Z,24.98
2022-08-27T06:12:44.451Z,24.80
2022-08-27T06:15:13.638Z,24.32
2022-08-27T06:17:42.341Z,24.66
2022-08-27T06:20:11.667Z,23.81
2022-08-27T06:22:40.379Z,23.66
2022-08-27T06:25:09.544Z,24.30
2022-08-27T06:27:39.770Z,23.73
2022-08-27T06:30:09.056Z,23.05
2022-08-27T06:32:42.013Z,22.92
2022-08-27T06:35:10.573Z,22.63
2022-08-27T06:37:40.070Z,21.49
2022-08-27T06:40:13.722Z,21.94
2022-08-27T06:42:42.225Z,22.42
2022-08-27T06:45:11.822Z,22.24
2022-08-27T06:47:40.165Z,21.97
2022-08-27T06:50:09.073Z,22.64
2022-08-27T06:52:37.629Z,23.08
2022-08-27T06:55:08.437Z,23.44
2022-08-27T06:57:38.952Z,23.62
2022-08-27T07:00:10.675Z,23.59
2022-08-27T07:02:40.756Z,23.56
2022-08-27T07:05:09.847Z,23.83
2022-08-27T07:07:43.173Z,23.85
2022-08-27T07:10:14.059Z,23.48
2022-08-27T07:12:42.624Z,22.59
2022-08-27T07:15:11.770Z,22.60
2022-08-27T07:17:41.936Z,22.23
2022-08-27T07:20:10.824Z,22.08
2022-08-27T07:22:43.392Z,21.48
2022-08-27T07:25:23.003Z,20.63
2022-08-27T07:27:51.674Z,20.87
2022-08-27T07:30:20.585Z,20.21
2022-08-27T07:32:48.963Z,20.36
2022-08-27T07:35:17.118Z,20.58
2022-08-27T07:37:45.611Z,20.43
2022-08-27T07:40:15.714Z,20.57
2022-08-27T07:43:02.814Z,20.51
2022-08-27T07:45:31.393Z,20.53
2022-08-27T07:47:59.552Z,20.38
2022-08-27T07:50:27.775Z,20.81
2022-08-27T07:52:56.146Z,20.82
2022-08-27T07:55:24.165Z,20.25
2022-08-27T07:57:52.970Z,20.43
2022-08-27T08:00:22.428Z,19.00
2022-08-27T08:02:50.797Z,19.90
2022-08-27T08:05:18.962Z,20.64
2022-08-27T08:07:47.496Z,19.94
2022-08-27T08:10:15.523Z,19.82
2022-08-27T08:12:44.182Z,19.79
2022-08-27T08:15:13.616Z,19.71
2022-08-27T08:17:43.339Z,20.09
2022-08-27T08:20:30.855Z,20.03
2022-08-27T08:23:00.932Z,19.44
2022-08-27T08:25:34.561Z,19.82
2022-08-27T08:28:07.196Z,19.69
2022-08-27T08:30:35.826Z,19.88
2022-08-27T08:33:04.491Z,19.84
2022-08-27T08:35:34.989Z,19.30
2022-08-27T08:38:10.138Z,19.23
2022-08-27T08:40:45.035Z,19.47
2022-08-27T08:43:39.698Z,19.12
2022-08-27T08:46:22.761Z,19.64
2022-08-27T08:48:56.344Z,19.23
2022-08-27T08:51:31.815Z,20.00
2022-08-27T08:54:10.343Z,18.35
2022-08-27T08:56:57.470Z,18.82
2022-08-27T08:59:38.389Z,18.01
2022-08-27T09:02:14.925Z,18.54
2022-08-27T09:04:44.715Z,17.95
2022-08-27T09:07:33.973Z,18.32
2022-08-27T09:10:14.979Z,17.17
2022-08-27T09:12:43.550Z,16.52
2022-08-27T09:15:25.342Z,15.62
2022-08-27T09:18:04.341Z,15.08
2022-08-27T09:20:34.392Z,13.69
2022-08-27T09:23:34.070Z,13.22
2022-08-27T09:26:02.204Z,12.40
2022-08-27T09:28:48.947Z,12.21
2022-08-27T09:31:20.269Z,11.67
2022-08-27T09:33:56.063Z,12.06
2022-08-27T09:36:26.061Z,11.44
2022-08-27T09:39:03.860Z,10.25
2022-08-27T09:41:43.441Z,10.56
2022-08-27T09:44:18.880Z,10.16
2022-08-27T09:46:55.767Z,9.74
2022-08-27T09:49:25.058Z,10.48
2022-08-27T09:51:55.514Z,9.72
2022-08-27T09:54:44.248Z,9.41
2022-08-27T09:57:28.833Z,9.60
2022-08-27T09:59:59.172Z,9.78
2022-08-27T10:02:27.735Z,8.72
2022-08-27T10:05:04.219Z,9.43
2022-08-27T10:07:54.348Z,9.25
2022-08-27T10:10:54.193Z,8.71
2022-08-27T10:13:32.087Z,8.30
2022-08-27T10:16:25.795Z,8.79
2022-08-27T10:19:28.484Z,8.22
2022-08-27T10:22:08.582Z,9.16
2022-08-27T10:24:46.247Z,8.73
2022-08-27T10:27:21.108Z,8.59
2022-08-27T10:29:58.485Z,9.26
2022-08-27T10:32:52.787Z,9.00
2022-08-27T10:35:46.784Z,8.67
2022-08-27T10:38:31.943Z,8.92
2022-08-27T10:41:04.604Z,8.94
2022-08-27T10:43:54.049Z,8.81
2022-08-27T10:46:33.086Z,8.31
2022-08-27T10:49:06.794Z,8.15
2022-08-27T10:51:57.281Z,8.61
2022-08-27T10:54:36.734Z,8.36
2022-08-27T10:57:58.883Z,8.58
2022-08-27T11:00:46.848Z,8.25
2022-08-27T11:03:21.773Z,9.50
2022-08-27T11:05:51.482Z,9.22
2022-08-27T11:08:38.106Z,8.80
2022-08-27T11:14:10.034Z,7.90
2022-08-27T11:16:45.984Z,7.33
2022-08-27T11:19:28.333Z,7.22
2022-08-27T11:22:26.665Z,8.36
2022-08-27T11:25:23.923Z,8.49
2022-08-27T11:27:54.128Z,8.58
2022-08-27T11:30:56.430Z,8.36
2022-08-27T11:33:46.145Z,8.94
2022-08-27T11:36:23.136Z,8.08
2022-08-27T11:39:23.491Z,8.06
2022-08-27T11:41:51.952Z,8.67
2022-08-27T11:44:23.024Z,9.10
2022-08-27T11:46:56.827Z,9.02
2022-08-27T11:49:41.649Z,8.67
2022-08-27T11:52:10.758Z,9.04
2022-08-27T11:54:52.482Z,8.45
2022-08-27T11:57:33.292Z,8.76
2022-08-27T12:00:17.804Z,9.35
2022-08-27T12:02:56.761Z,9.74
2022-08-27T12:05:34.843Z,9.97
2022-08-27T12:08:16.536Z,9.71
2022-08-27T12:11:25.949Z,9.62
2022-08-27T12:14:35.349Z,9.96
2022-08-27T12:17:36.645Z,9.88
2022-08-27T12:20:10.544Z,9.94
2022-08-27T12:23:10.007Z,9.32
2022-08-27T12:25:37.888Z,8.78
2022-08-27T12:28:09.564Z,9.87
2022-08-27T12:30:42.031Z,10.40
2022-08-27T12:33:28.515Z,10.12
2022-08-27T12:36:04.592Z,10.03
2022-08-27T12:38:32.967Z,10.79
2022-08-27T12:41:09.347Z,11.20
2022-08-27T12:43:44.059Z,10.84
2022-08-27T12:46:16.569Z,10.82
2022-08-27T12:48:49.163Z,10.91
2022-08-27T12:51:27.087Z,10.58
2022-08-27T12:54:29.035Z,10.92
2022-08-27T12:57:32.586Z,10.53
2022-08-27T13:00:15.537Z,10.04
2022-08-27T13:02:59.349Z,11.09
2022-08-27T13:05:38.043Z,11.42
2022-08-27T13:08:07.055Z,11.54
2022-08-27T13:10:35.996Z,10.95
2022-08-27T13:13:21.334Z,10.48
2022-08-27T13:15:57.493Z,10.54
2022-08-27T13:18:30.099Z,10.99
2022-08-27T13:21:28.443Z,10.57
2022-08-27T13:24:03.020Z,11.46
2022-08-27T13:26:37.417Z,11.69
2022-08-27T13:29:07.086Z,11.76
2022-08-27T13:31:36.170Z,12.48
2022-08-27T13:34:06.604Z,13.11
2022-08-27T13:36:38.305Z,13.85
2022-08-27T13:39:07.907Z,14.43
2022-08-27T13:41:38.861Z,14.85
2022-08-27T13:44:16.824Z,15.26
2022-08-27T13:47:06.841Z,15.82
2022-08-27T13:49:40.220Z,16.17
2022-08-27T13:52:33.147Z,14.77
2022-08-27T13:55:15.429Z,14.62
2022-08-27T13:57:46.945Z,16.04
2022-08-27T14:00:31.930Z,16.63
2022-08-27T14:03:04.260Z,17.11
2022-08-27T14:05:37.175Z,17.45
2022-08-27T14:08:17.686Z,18.15
2022-08-27T14:11:03.552Z,19.43
2022-08-27T14:13:47.625Z,19.88
2022-08-27T14:16:31.198Z,19.81
2022-08-27T14:19:25.177Z,20.79
2022-08-27T14:21:53.736Z,20.23
2022-08-27T14:24:22.741Z,20.02
2022-08-27T14:26:53.602Z,20.71
2022-08-27T14:29:22.169Z,21.09
2022-08-27T14:31:50.242Z,21.57
2022-08-27T14:34:18.356Z,22.29
2022-08-27T14:36:48.392Z,21.24
2022-08-27T14:39:19.372Z,21.27
2022-08-27T14:41:50.575Z,21.87
2022-08-27T14:44:19.656Z,22.04
2022-08-27T14:46:48.321Z,22.76
2022-08-27T14:49:28.462Z,20.85
2022-08-27T14:51:57.004Z,23.18
2022-08-27T14:54:29.170Z,20.70
2022-08-27T14:57:03.245Z,22.67
2022-08-27T14:59:32.701Z,22.60
2022-08-27T15:02:03.312Z,22.90
2022-08-27T15:04:32.725Z,23.06
2022-08-27T15:07:03.236Z,23.17
2022-08-27T15:09:32.668Z,23.17
2022-08-27T15:12:01.072Z,23.59
2022-08-27T15:14:33.108Z,22.96
2022-08-27T15:17:01.555Z,22.87
2022-08-27T15:19:39.338Z,23.21
2022-08-27T15:22:22.675Z,22.34
2022-08-27T15:24:58.956Z,22.51
2022-08-27T18:06:06.884Z,34.90
2022-08-27T18:08:35.480Z,34.09
2022-08-27T18:11:05.050Z,33.58
2022-08-27T18:13:37.510Z,33.46
2022-08-27T18:16:08.412Z,33.60
2022-08-27T18:18:38.505Z,34.27
2022-08-27T18:21:10.575Z,34.33
2022-08-27T18:23:40.754Z,34.83
2022-08-27T18:26:14.113Z,35.09
2022-08-27T18:28:45.694Z,34.29
2022-08-27T18:31:14.344Z,33.65
2022-08-27T18:33:44.790Z,33.44
2022-08-27T18:36:21.051Z,32.83
2022-08-27T18:38:50.788Z,32.74
2022-08-27T18:41:20.863Z,32.30
2022-08-27T18:43:49.802Z,32.36
2022-08-27T18:46:18.377Z,32.09
2022-08-27T18:48:47.308Z,32.65
2022-08-27T18:51:21.335Z,33.17
2022-08-27T18:53:54.290Z,32.79
2022-08-27T18:56:29.259Z,32.64
2022-08-27T18:59:01.346Z,32.10
2022-08-27T19:01:29.910Z,32.30
2022-08-27T19:03:58.716Z,32.30
2022-08-27T19:06:27.888Z,32.46
2022-08-27T19:08:56.862Z,32.46
2022-08-27T19:11:25.479Z,32.46
2022-08-27T19:13:54.155Z,32.57
2022-08-27T19:16:38.294Z,32.67
2022-08-27T19:19:12.881Z,32.18
2022-08-27T19:21:42.040Z,32.33
2022-08-27T19:24:11.884Z,32.19
2022-08-27T19:26:41.199Z,32.02
2022-08-27T19:29:09.286Z,30.84
2022-08-27T19:31:38.451Z,31.97
2022-08-27T19:34:17.543Z,32.49
2022-08-27T19:37:11.865Z,32.90
2022-08-27T19:40:12.343Z,32.68
2022-08-27T19:43:10.649Z,33.08
2022-08-27T19:45:40.557Z,32.92
2022-08-27T19:48:10.913Z,32.78
2022-08-27T19:50:39.895Z,33.27
2022-08-27T19:53:10.124Z,33.23
2022-08-27T19:55:49.181Z,33.44
2022-08-27T19:58:20.335Z,33.75
2022-08-27T20:00:57.085Z,35.10
2022-08-27T20:03:26.802Z,35.86
2022-08-27T20:05:55.759Z,35.60
2022-08-27T20:08:24.171Z,35.47
2022-08-27T20:10:52.905Z,35.12
2022-08-27T20:13:21.809Z,35.69
2022-08-27T20:15:51.311Z,37.24
2022-08-27T20:18:21.895Z,36.84
2022-08-27T20:20:51.058Z,36.19
2022-08-27T20:23:19.904Z,35.43
2022-08-27T20:25:49.318Z,35.14
2022-08-27T20:28:38.387Z,35.08
2022-08-27T20:31:07.745Z,34.68
2022-08-27T20:33:37.190Z,34.83
2022-08-27T20:36:10.432Z,35.29
2022-08-27T20:38:42.339Z,35.03
2022-08-27T20:41:10.930Z,35.01
2022-08-27T20:43:39.882Z,35.26
2022-08-27T20:46:10.148Z,34.85
2022-08-27T20:48:39.853Z,35.54
2022-08-27T20:51:09.887Z,35.43
2022-08-27T20:53:38.323Z,36.51
2022-08-27T20:56:07.004Z,36.38
2022-08-27T20:58:54.754Z,36.61
2022-08-27T21:01:23.937Z,36.16
2022-08-27T21:03:52.957Z,35.73
2022-08-27T21:06:26.296Z,36.03
2022-08-27T21:08:56.331Z,35.46
2022-08-27T21:11:25.566Z,32.80
2022-08-27T21:13:56.622Z,35.15
2022-08-27T21:16:26.313Z,36.35
2022-08-27T21:18:55.965Z,36.31
2022-08-27T21:21:24.601Z,35.60
2022-08-27T21:23:53.982Z,35.54
2022-08-27T21:26:23.411Z,35.76
2022-08-27T21:28:55.640Z,33.65
2022-08-27T21:31:25.802Z,34.62
2022-08-27T21:33:54.280Z,33.71
2022-08-27T21:36:23.018Z,36.31
2022-08-27T21:38:51.880Z,35.73
2022-08-27T21:41:21.158Z,35.85
2022-08-27T21:43:50.150Z,36.34
2022-08-27T21:46:22.744Z,36.97
2022-08-27T21:48:58.827Z,36.30
2022-08-27T21:51:28.080Z,35.90
2022-08-27T21:53:59.038Z,37.14
2022-08-27T21:56:30.426Z,36.84
2022-08-27T21:58:59.382Z,36.20
2022-08-27T22:01:27.842Z,37.22
2022-08-27T22:03:56.380Z,36.74
2022-08-27T22:06:25.802Z,36.25
2022-08-27T22:08:54.485Z,36.56
2022-08-27T22:11:24.902Z,36.55
2022-08-27T22:13:54.453Z,36.17
2022-08-27T22:16:22.977Z,36.36
2022-08-27T22:18:54.914Z,36.03
2022-08-27T22:21:25.491Z,36.33
2022-08-27T22:23:54.541Z,35.93
2022-08-27T22:26:23.182Z,35.83
2022-08-27T22:28:51.762Z,36.50
2022-08-27T22:31:20.417Z,36.86
2022-08-27T22:33:48.739Z,36.53
2022-08-27T22:36:17.533Z,37.27
2022-08-27T22:38:46.330Z,37.28
2022-08-27T22:41:17.848Z,36.88
2022-08-27T22:43:48.142Z,36.58
2022-08-27T22:46:16.755Z,36.59
2022-08-27T22:48:45.175Z,37.80
2022-08-27T22:51:14.719Z,37.46
2022-08-27T22:53:43.218Z,36.88
2022-08-27T22:56:11.824Z,36.89
2022-08-27T22:58:44.008Z,37.09
2022-08-27T23:01:19.881Z,36.72
2022-08-27T23:03:49.608Z,36.70
2022-08-27T23:06:17.996Z,36.95
2022-08-27T23:08:46.477Z,37.03
2022-08-27T23:11:16.393Z,36.71
2022-08-27T23:13:45.797Z,37.33
2022-08-27T23:16:16.099Z,37.29
2022-08-27T23:18:46.104Z,37.07
2022-08-27T23:21:14.941Z,37.16
2022-08-27T23:23:43.516Z,36.96
2022-08-27T23:26:30.627Z,36.80
2022-08-27T23:28:59.333Z,36.60
2022-08-27T23:31:28.183Z,34.81
2022-08-27T23:33:57.896Z,36.71
2022-08-27T23:36:26.717Z,37.08
2022-08-27T23:38:55.679Z,37.51
2022-08-27T23:41:24.316Z,37.33
2022-08-27T23:43:54.384Z,37.37
2022-08-27T23:46:23.619Z,37.36
2022-08-27T23:48:52.049Z,37.50
2022-08-27T23:51:21.546Z,37.87
2022-08-27T23:53:50.647Z,37.51
2022-08-27T23:56:20.054Z,37.62
2022-08-27T23:58:49.221Z,38.22
